sensor_id;sensor_type;location;lat;lon;timestamp;pressure;altitude;pressure_sealevel;temperature
77355;BMP280;66422;51.202;19.936;2023-04-03T00:04:10;99855.36;;;2.76
77355;BMP280;66422;51.202;19.936;2023-04-03T00:19:29;99856.55;;;2.41
77355;BMP280;66422;51.202;19.936;2023-04-03T00:34:49;99872.37;;;2.52
77355;BMP280;66422;51.202;19.936;2023-04-03T00:50:08;99877.09;;;2.63
77355;BMP280;66422;51.202;19.936;2023-04-03T01:05:29;99889.56;;;2.25
77355;BMP280;66422;51.202;19.936;2023-04-03T01:36:10;99887.08;;;1.96
77355;BMP280;66422;51.202;19.936;2023-04-03T01:51:32;99904.73;;;2.08
77355;BMP280;66422;51.202;19.936;2023-04-03T02:06:53;99911.42;;;1.90
77355;BMP280;66422;51.202;19.936;2023-04-03T02:22:12;99929.55;;;1.81
77355;BMP280;66422;51.202;19.936;2023-04-03T02:37:32;99921.81;;;1.80
77355;BMP280;66422;51.202;19.936;2023-04-03T02:52:52;99935.58;;;1.63
77355;BMP280;66422;51.202;19.936;2023-04-03T03:08:12;99947.81;;;1.52
77355;BMP280;66422;51.202;19.936;2023-04-03T03:23:32;99958.38;;;1.50
77355;BMP280;66422;51.202;19.936;2023-04-03T03:38:52;99968.32;;;1.39
77355;BMP280;66422;51.202;19.936;2023-04-03T03:54:12;99969.55;;;1.37
77355;BMP280;66422;51.202;19.936;2023-04-03T04:09:32;99982.73;;;1.23
77355;BMP280;66422;51.202;19.936;2023-04-03T04:24:52;99993.00;;;0.98
77355;BMP280;66422;51.202;19.936;2023-04-03T04:40:12;100002.29;;;0.90
77355;BMP280;66422;51.202;19.936;2023-04-03T04:55:32;100019.06;;;0.76
77355;BMP280;66422;51.202;19.936;2023-04-03T05:10:52;100030.52;;;0.95
77355;BMP280;66422;51.202;19.936;2023-04-03T05:26:13;100041.34;;;0.83
77355;BMP280;66422;51.202;19.936;2023-04-03T05:41:32;100049.21;;;0.85
77355;BMP280;66422;51.202;19.936;2023-04-03T05:56:52;100055.52;;;0.69
77355;BMP280;66422;51.202;19.936;2023-04-03T06:12:14;100062.73;;;0.86
77355;BMP280;66422;51.202;19.936;2023-04-03T06:27:34;100072.30;;;0.82
77355;BMP280;66422;51.202;19.936;2023-04-03T06:42:53;100083.79;;;0.88
77355;BMP280;66422;51.202;19.936;2023-04-03T06:58:13;100107.45;;;0.81
77355;BMP280;66422;51.202;19.936;2023-04-03T07:13:35;100121.25;;;1.30
77355;BMP280;66422;51.202;19.936;2023-04-03T07:28:55;100137.77;;;1.18
77355;BMP280;66422;51.202;19.936;2023-04-03T07:44:15;100145.88;;;1.08
77355;BMP280;66422;51.202;19.936;2023-04-03T07:59:35;100153.40;;;1.44
77355;BMP280;66422;51.202;19.936;2023-04-03T08:14:55;100160.22;;;2.02
77355;BMP280;66422;51.202;19.936;2023-04-03T08:30:15;100160.64;;;2.19
77355;BMP280;66422;51.202;19.936;2023-04-03T08:45:54;100171.09;;;2.25
77355;BMP280;66422;51.202;19.936;2023-04-03T09:01:36;100180.80;;;2.93
77355;BMP280;66422;51.202;19.936;2023-04-03T09:17:33;100194.78;;;3.36
77355;BMP280;66422;51.202;19.936;2023-04-03T09:32:45;100190.48;;;3.66
77355;BMP280;66422;51.202;19.936;2023-04-03T09:48:16;100199.42;;;3.95
77355;BMP280;66422;51.202;19.936;2023-04-03T10:03:37;100214.30;;;4.16
77355;BMP280;66422;51.202;19.936;2023-04-03T10:34:42;100224.85;;;4.49
77355;BMP280;66422;51.202;19.936;2023-04-03T11:05:44;100209.16;;;4.60
77355;BMP280;66422;51.202;19.936;2023-04-03T11:21:09;100212.98;;;5.61
77355;BMP280;66422;51.202;19.936;2023-04-03T11:36:33;100209.48;;;5.75
77355;BMP280;66422;51.202;19.936;2023-04-03T11:51:54;100198.59;;;5.73
77355;BMP280;66422;51.202;19.936;2023-04-03T12:07:18;100197.35;;;5.22
77355;BMP280;66422;51.202;19.936;2023-04-03T12:23:07;100204.23;;;4.97
77355;BMP280;66422;51.202;19.936;2023-04-03T12:39:01;100184.11;;;6.02
77355;BMP280;66422;51.202;19.936;2023-04-03T12:54:27;100191.54;;;5.57
77355;BMP280;66422;51.202;19.936;2023-04-03T13:09:59;100184.27;;;6.64
77355;BMP280;66422;51.202;19.936;2023-04-03T13:25:22;100177.60;;;6.68
77355;BMP280;66422;51.202;19.936;2023-04-03T13:40:54;100188.10;;;5.02
77355;BMP280;66422;51.202;19.936;2023-04-03T14:11:48;100175.13;;;5.83
77355;BMP280;66422;51.202;19.936;2023-04-03T14:27:33;100186.73;;;5.66
77355;BMP280;66422;51.202;19.936;2023-04-03T14:42:54;100181.63;;;5.45
77355;BMP280;66422;51.202;19.936;2023-04-03T14:58:17;100183.61;;;5.86
77355;BMP280;66422;51.202;19.936;2023-04-03T15:13:37;100181.77;;;5.57
77355;BMP280;66422;51.202;19.936;2023-04-03T15:28:57;100190.69;;;5.16
77355;BMP280;66422;51.202;19.936;2023-04-03T15:44:18;100170.69;;;5.04
77355;BMP280;66422;51.202;19.936;2023-04-03T15:59:38;100179.48;;;4.84
77355;BMP280;66422;51.202;19.936;2023-04-03T16:14:57;100170.77;;;5.09
77355;BMP280;66422;51.202;19.936;2023-04-03T16:30:17;100169.81;;;4.82
77355;BMP280;66422;51.202;19.936;2023-04-03T16:45:37;100175.55;;;4.73
77355;BMP280;66422;51.202;19.936;2023-04-03T17:00:57;100173.89;;;4.49
77355;BMP280;66422;51.202;19.936;2023-04-03T17:16:16;100178.84;;;4.38
77355;BMP280;66422;51.202;19.936;2023-04-03T17:31:36;100185.79;;;4.20
77355;BMP280;66422;51.202;19.936;2023-04-03T17:46:55;100200.09;;;3.89
77355;BMP280;66422;51.202;19.936;2023-04-03T18:02:15;100205.20;;;3.85
77355;BMP280;66422;51.202;19.936;2023-04-03T18:17:35;100213.14;;;3.57
77355;BMP280;66422;51.202;19.936;2023-04-03T18:32:54;100219.13;;;3.56
77355;BMP280;66422;51.202;19.936;2023-04-03T18:48:14;100223.29;;;3.46
77355;BMP280;66422;51.202;19.936;2023-04-03T19:03:34;100222.27;;;3.26
77355;BMP280;66422;51.202;19.936;2023-04-03T19:18:55;100221.80;;;3.31
77355;BMP280;66422;51.202;19.936;2023-04-03T19:34:15;100219.44;;;3.35
77355;BMP280;66422;51.202;19.936;2023-04-03T19:49:35;100226.41;;;3.31
77355;BMP280;66422;51.202;19.936;2023-04-03T20:04:54;100227.69;;;3.32
77355;BMP280;66422;51.202;19.936;2023-04-03T20:20:14;100228.66;;;3.15
77355;BMP280;66422;51.202;19.936;2023-04-03T20:35:34;100230.71;;;3.24
77355;BMP280;66422;51.202;19.936;2023-04-03T20:50:54;100227.45;;;3.12
77355;BMP280;66422;51.202;19.936;2023-04-03T21:22:14;100235.67;;;2.92
77355;BMP280;66422;51.202;19.936;2023-04-03T21:37:34;100238.70;;;2.88
77355;BMP280;66422;51.202;19.936;2023-04-03T21:52:53;100244.91;;;2.64
77355;BMP280;66422;51.202;19.936;2023-04-03T22:08:13;100247.11;;;2.64
77355;BMP280;66422;51.202;19.936;2023-04-03T22:23:33;100238.85;;;2.47
77355;BMP280;66422;51.202;19.936;2023-04-03T22:38:52;100248.91;;;2.22
77355;BMP280;66422;51.202;19.936;2023-04-03T22:54:12;100260.81;;;1.92
77355;BMP280;66422;51.202;19.936;2023-04-03T23:09:32;100250.25;;;1.53
77355;BMP280;66422;51.202;19.936;2023-04-03T23:24:51;100241.67;;;1.26
77355;BMP280;66422;51.202;19.936;2023-04-03T23:40:11;100227.25;;;1.00
77355;BMP280;66422;51.202;19.936;2023-04-03T23:55:31;100217.29;;;0.79
